Time;durP1;ratioP1;P1;durP2;ratioP2;P2;SDS_P1;SDS_P2;PMS_P1;PMS_P2;Temp;Humidity;BMP_temperature;BMP_pressure;BME280_temperature;BME280_humidity;BME280_pressure;Samples;Min_cycle;Max_cycle;Signal;HPM_P1;HPM_P2
2023/10/15 00:00:15;;;;;;;7.78;1.20;;;7.60;41.50;;;;;;5087454;28;20413;-72
2023/10/15 00:02:42;;;;;;;8.48;1.23;;;7.60;40.60;;;;;;5087704;28;20412;-72
2023/10/15 00:05:17;;;;;;;9.65;1.60;;;7.60;42.00;;;;;;5087864;28;20398;-71
2023/10/15 00:07:44;;;;;;;9.43;1.75;;;7.70;43.60;;;;;;5086607;28;20958;-72
2023/10/15 00:10:15;;;;;;;7.25;1.40;;;7.70;43.70;;;;;;5095684;28;20425;-72
2023/10/15 00:12:43;;;;;;;8.68;1.45;;;7.70;42.60;;;;;;5069701;28;20785;-72
2023/10/15 00:15:15;;;;;;;8.30;0.98;;;7.70;42.10;;;;;;5087777;28;20430;-72
2023/10/15 00:17:42;;;;;;;9.88;1.40;;;7.70;42.80;;;;;;5088130;28;20915;-72
2023/10/15 00:20:10;;;;;;;7.13;1.00;;;7.60;42.80;;;;;;5087550;28;20421;-72
2023/10/15 00:22:38;;;;;;;6.77;0.90;;;7.50;43.20;;;;;;5087134;28;20916;-72
2023/10/15 00:25:09;;;;;;;6.68;0.80;;;7.50;43.40;;;;;;5086334;28;20475;-72
2023/10/15 00:27:36;;;;;;;8.38;1.40;;;7.40;43.40;;;;;;5087961;28;20437;-72
2023/10/15 00:30:12;;;;;;;7.53;0.90;;;7.40;42.60;;;;;;5088232;28;20410;-72
2023/10/15 00:32:44;;;;;;;4.93;0.55;;;7.40;41.90;;;;;;5087805;28;20821;-72
2023/10/15 00:35:14;;;;;;;5.80;1.25;;;7.30;41.00;;;;;;5087827;28;20410;-72
2023/10/15 00:37:52;;;;;;;7.57;1.08;;;7.20;41.20;;;;;;5086907;28;20406;-72
2023/10/15 00:40:20;;;;;;;6.53;0.85;;;7.20;41.00;;;;;;5086703;28;20394;-71
2023/10/15 00:42:45;;;;;;;3.45;0.50;;;7.10;41.50;;;;;;5086964;28;20406;-72
2023/10/15 00:45:15;;;;;;;5.40;0.70;;;7.10;41.60;;;;;;5087621;28;20463;-72
2023/10/15 00:47:43;;;;;;;5.20;0.65;;;7.10;41.70;;;;;;5091985;28;20433;-72
2023/10/15 00:50:09;;;;;;;4.60;0.70;;;7.10;42.30;;;;;;5076556;28;20971;-72
2023/10/15 00:52:42;;;;;;;5.10;0.60;;;7.00;42.70;;;;;;5083605;28;20415;-72
2023/10/15 00:55:16;;;;;;;6.18;0.63;;;7.00;44.00;;;;;;5095871;28;21058;-72
2023/10/15 00:57:47;;;;;;;6.87;1.07;;;7.00;45.00;;;;;;5085691;28;20948;-72
2023/10/15 01:02:58;;;;;;;5.28;1.13;;;7.00;47.00;;;;;;5087871;28;20768;-72
2023/10/15 01:05:28;;;;;;;5.82;0.90;;;7.00;48.20;;;;;;5072701;28;20405;-71
2023/10/15 01:07:54;;;;;;;5.03;0.77;;;7.00;49.00;;;;;;5090131;28;21005;-72
2023/10/15 01:10:39;;;;;;;5.95;1.02;;;7.00;49.70;;;;;;5090035;28;20409;-71
2023/10/15 01:13:21;;;;;;;8.50;0.93;;;7.10;51.00;;;;;;5091439;28;20398;-71
2023/10/15 01:15:54;;;;;;;8.35;0.90;;;7.10;51.30;;;;;;5090448;28;20402;-72
2023/10/15 01:18:20;;;;;;;8.70;0.88;;;7.20;48.80;;;;;;5091034;28;20424;-72
2023/10/15 01:20:45;;;;;;;7.10;0.70;;;7.20;50.70;;;;;;5089963;28;20438;-71
2023/10/15 01:26:09;;;;;;;7.40;0.80;;;7.20;53.90;;;;;;5077340;28;20914;-71
2023/10/15 01:28:37;;;;;;;8.30;0.80;;;7.20;53.00;;;;;;5090028;28;20445;-71
2023/10/15 01:31:05;;;;;;;3.45;0.30;;;7.30;54.20;;;;;;5091656;28;20481;-71
2023/10/15 01:33:46;;;;;;;3.35;0.45;;;7.30;53.50;;;;;;5095346;28;20414;-71
2023/10/15 01:36:16;;;;;;;2.53;0.25;;;7.30;52.00;;;;;;5094624;28;20825;-71
2023/10/15 01:38:44;;;;;;;2.15;0.20;;;7.30;51.10;;;;;;5090979;28;20386;-71
2023/10/15 01:41:13;;;;;;;5.00;0.40;;;7.30;49.50;;;;;;5090456;28;20473;-71
2023/10/15 01:43:40;;;;;;;4.63;0.70;;;7.30;49.20;;;;;;5091238;28;21299;-71
2023/10/15 01:46:10;;;;;;;3.22;0.40;;;7.30;48.90;;;;;;5089554;28;20981;-71
2023/10/15 01:48:40;;;;;;;1.50;0.30;;;7.20;47.40;;;;;;5089351;28;20486;-72
2023/10/15 01:51:07;;;;;;;2.95;0.30;;;7.20;46.80;;;;;;5078116;28;20413;-72
2023/10/15 01:53:34;;;;;;;4.15;0.50;;;7.20;46.30;;;;;;5090052;28;20459;-71
2023/10/15 01:56:03;;;;;;;3.45;0.32;;;7.10;46.10;;;;;;5090062;28;20912;-71
2023/10/15 01:58:31;;;;;;;2.50;0.25;;;7.10;45.60;;;;;;5088549;28;20402;-71
2023/10/15 02:01:19;;;;;;;3.23;0.23;;;7.00;46.10;;;;;;5089460;28;20955;-72
2023/10/15 02:03:45;;;;;;;6.85;0.70;;;7.00;46.20;;;;;;5089656;28;20398;-71
2023/10/15 02:06:11;;;;;;;4.15;0.50;;;7.00;47.30;;;;;;5088323;28;20413;-72
2023/10/15 02:08:39;;;;;;;7.93;0.50;;;7.00;49.10;;;;;;5090805;28;20491;-72
2023/10/15 02:11:15;;;;;;;4.05;0.30;;;7.20;50.90;;;;;;5072211;28;20490;-71
2023/10/15 02:13:47;;;;;;;3.30;0.35;;;7.20;50.60;;;;;;5088209;28;20958;-72
2023/10/15 02:16:16;;;;;;;6.60;0.60;;;7.30;49.00;;;;;;5087782;28;21020;-72
2023/10/15 02:18:45;;;;;;;5.05;0.45;;;7.30;49.90;;;;;;5088562;28;20795;-72
2023/10/15 02:21:17;;;;;;;4.07;0.50;;;7.40;49.10;;;;;;5097504;28;20414;-71
2023/10/15 02:23:50;;;;;;;4.20;0.53;;;7.30;49.00;;;;;;5089031;28;20409;-71
2023/10/15 02:26:23;;;;;;;6.00;0.55;;;7.40;48.50;;;;;;5081931;28;20417;-72
2023/10/15 02:28:53;;;;;;;5.65;0.80;;;7.30;49.50;;;;;;5089061;28;21143;-71
2023/10/15 02:31:22;;;;;;;5.55;0.52;;;7.30;50.40;;;;;;5096451;28;20509;-72
2023/10/15 02:33:49;;;;;;;4.70;0.40;;;7.30;50.60;;;;;;5088982;28;20485;-72
2023/10/15 02:36:23;;;;;;;5.80;0.40;;;7.30;50.20;;;;;;5076012;28;20443;-72
2023/10/15 02:38:52;;;;;;;6.53;0.95;;;7.30;49.00;;;;;;5088553;28;20795;-72
2023/10/15 02:41:22;;;;;;;8.07;1.02;;;7.20;48.30;;;;;;5091070;28;20768;-72
2023/10/15 02:43:56;;;;;;;9.30;1.13;;;7.20;48.60;;;;;;5087726;28;20419;-72
2023/10/15 02:46:24;;;;;;;7.90;0.80;;;7.20;48.80;;;;;;5088955;28;20544;-72
2023/10/15 02:48:53;;;;;;;6.43;0.75;;;7.20;49.30;;;;;;5088793;28;20402;-72
2023/10/15 02:51:25;;;;;;;7.70;0.88;;;7.20;50.00;;;;;;5092090;28;20934;-72
2023/10/15 02:53:55;;;;;;;4.88;0.38;;;7.20;51.00;;;;;;5088499;28;20993;-72
2023/10/15 02:56:21;;;;;;;5.77;0.70;;;7.30;50.60;;;;;;5095193;28;20489;-73
2023/10/15 02:58:49;;;;;;;7.05;0.55;;;7.30;50.50;;;;;;5089736;28;20417;-72
2023/10/15 03:01:23;;;;;;;8.07;0.60;;;7.30;50.00;;;;;;5090952;28;20822;-72
2023/10/15 03:04:07;;;;;;;3.90;0.32;;;7.40;50.00;;;;;;5089274;28;20503;-72
2023/10/15 03:06:34;;;;;;;6.82;0.57;;;7.30;49.40;;;;;;5089454;28;20405;-72
2023/10/15 03:09:00;;;;;;;4.32;0.50;;;7.30;49.20;;;;;;5089040;28;20406;-72
2023/10/15 03:11:32;;;;;;;5.68;0.50;;;7.30;49.60;;;;;;5088415;28;20512;-72
2023/10/15 03:14:00;;;;;;;6.65;0.65;;;7.30;50.90;;;;;;5118609;27;20975;-72
2023/10/15 03:16:30;;;;;;;7.35;0.45;;;7.30;52.20;;;;;;5089470;28;20398;-72
2023/10/15 03:18:56;;;;;;;5.38;0.70;;;7.30;52.90;;;;;;5089066;28;20430;-72
2023/10/15 03:21:26;;;;;;;5.60;0.40;;;7.40;53.20;;;;;;5092394;28;20426;-72
2023/10/15 03:23:56;;;;;;;7.00;0.55;;;7.40;51.80;;;;;;5090087;28;20420;-72
2023/10/15 03:26:33;;;;;;;3.13;0.50;;;7.50;52.70;;;;;;5088546;28;20484;-72
2023/10/15 03:28:59;;;;;;;4.55;0.40;;;7.60;52.80;;;;;;5113061;27;20484;-72
2023/10/15 03:31:27;;;;;;;6.57;0.60;;;7.60;53.30;;;;;;5085247;28;20907;-72
2023/10/15 03:36:58;;;;;;;3.80;0.60;;;7.50;52.30;;;;;;5088143;28;20406;-72
2023/10/15 03:39:24;;;;;;;5.20;0.77;;;7.50;52.90;;;;;;5088119;28;20908;-72
2023/10/15 03:42:09;;;;;;;4.53;0.63;;;7.50;53.60;;;;;;5087010;28;20406;-72
2023/10/15 03:44:59;;;;;;;3.15;0.20;;;7.40;53.60;;;;;;5084791;28;20410;-69
2023/10/15 03:47:25;;;;;;;4.13;0.50;;;7.40;54.10;;;;;;5072656;28;20515;-71
2023/10/15 03:49:51;;;;;;;4.13;0.40;;;7.30;54.50;;;;;;5087094;28;20949;-71
2023/10/15 03:52:20;;;;;;;5.68;0.90;;;7.30;54.90;;;;;;5088294;28;20402;-71
2023/10/15 03:54:49;;;;;;;4.45;0.50;;;7.30;55.20;;;;;;5091514;28;20778;-71
2023/10/15 03:57:22;;;;;;;4.65;0.60;;;7.30;55.70;;;;;;5087751;28;20517;-71
2023/10/15 03:59:52;;;;;;;3.90;0.40;;;7.30;55.60;;;;;;5088017;28;20437;-71
2023/10/15 04:02:43;;;;;;;4.47;0.50;;;7.30;55.70;;;;;;5088348;28;20402;-71
2023/10/15 04:05:12;;;;;;;5.00;0.52;;;7.30;57.20;;;;;;5080791;28;20437;-71
2023/10/15 04:07:48;;;;;;;4.95;0.30;;;7.20;57.30;;;;;;5087492;28;20479;-71
2023/10/15 04:10:14;;;;;;;4.10;0.30;;;7.10;57.60;;;;;;5086863;28;20412;-70
2023/10/15 04:12:43;;;;;;;2.45;0.30;;;7.10;59.40;;;;;;5088001;28;20394;-70
2023/10/15 04:15:14;;;;;;;3.42;0.20;;;7.10;59.60;;;;;;5093179;28;20410;-71
2023/10/15 04:17:42;;;;;;;4.35;0.35;;;7.00;60.50;;;;;;5085472;28;20477;-71
2023/10/15 04:20:08;;;;;;;3.22;0.20;;;7.00;61.80;;;;;;5073902;28;20418;-70
2023/10/15 04:22:44;;;;;;;4.47;0.40;;;6.90;62.60;;;;;;5088434;28;20402;-70
2023/10/15 04:25:23;;;;;;;7.00;0.50;;;7.00;63.50;;;;;;5090182;28;20415;-70
2023/10/15 04:27:49;;;;;;;5.45;0.40;;;6.90;64.10;;;;;;5090065;28;20432;-70
2023/10/15 04:30:15;;;;;;;4.72;0.40;;;6.90;64.10;;;;;;5086772;28;20425;-71
2023/10/15 04:35:11;;;;;;;4.73;0.37;;;6.90;65.00;;;;;;5087145;28;20411;-70
2023/10/15 04:37:37;;;;;;;5.18;0.60;;;6.90;65.40;;;;;;5088125;28;20760;-71
2023/10/15 04:40:11;;;;;;;4.30;0.55;;;6.90;66.00;;;;;;5091889;28;20470;-71
2023/10/15 04:42:48;;;;;;;3.75;0.50;;;6.80;65.40;;;;;;5088783;28;20436;-71
2023/10/15 04:45:20;;;;;;;4.50;0.40;;;6.80;65.30;;;;;;5100833;28;20442;-70
2023/10/15 04:48:12;;;;;;;5.40;0.40;;;6.80;65.70;;;;;;5095844;28;20471;-69
2023/10/15 04:50:38;;;;;;;5.72;0.40;;;6.70;65.60;;;;;;5084902;28;20945;-69
2023/10/15 04:53:23;;;;;;;5.60;0.40;;;6.70;66.30;;;;;;5082995;28;20406;-70
2023/10/15 04:55:49;;;;;;;4.50;0.30;;;6.70;66.60;;;;;;5077014;28;20540;-71
2023/10/15 04:58:15;;;;;;;5.18;0.30;;;6.70;67.90;;;;;;5084753;28;20489;-71
2023/10/15 05:00:43;;;;;;;3.78;0.60;;;6.70;67.60;;;;;;5078741;28;20390;-72
2023/10/15 05:03:09;;;;;;;4.70;0.22;;;6.70;68.30;;;;;;5086381;28;20482;-71
2023/10/15 05:05:36;;;;;;;4.57;0.30;;;6.70;68.80;;;;;;5087535;28;20890;-72
2023/10/15 05:08:02;;;;;;;4.72;0.32;;;6.70;69.20;;;;;;5089818;28;20422;-72
2023/10/15 05:10:33;;;;;;;3.55;0.40;;;6.80;68.40;;;;;;5095995;28;20412;-72
2023/10/15 05:12:59;;;;;;;3.08;0.60;;;6.80;68.30;;;;;;5083091;28;20413;-72
2023/10/15 05:15:27;;;;;;;4.80;0.50;;;6.80;69.00;;;;;;5087641;28;20402;-72
2023/10/15 05:17:53;;;;;;;3.35;0.25;;;6.80;68.80;;;;;;5083875;28;20398;-72
2023/10/15 05:20:20;;;;;;;2.70;0.30;;;6.80;69.50;;;;;;5088529;28;20431;-72
2023/10/15 05:22:49;;;;;;;3.90;0.45;;;6.80;69.50;;;;;;5086408;28;21003;-72
2023/10/15 05:25:19;;;;;;;3.83;0.30;;;6.80;69.90;;;;;;5085626;28;20409;-72
2023/10/15 05:27:45;;;;;;;2.17;0.30;;;6.80;69.70;;;;;;5088276;28;20537;-72
2023/10/15 05:30:15;;;;;;;3.33;0.38;;;6.90;70.00;;;;;;5087688;28;20410;-72
2023/10/15 05:32:44;;;;;;;4.75;0.47;;;6.90;70.00;;;;;;5087165;28;20445;-72
2023/10/15 05:35:11;;;;;;;4.38;0.50;;;6.90;69.70;;;;;;5068828;28;20409;-72
2023/10/15 05:37:39;;;;;;;3.42;0.50;;;7.00;69.70;;;;;;5087045;28;20409;-72
2023/10/15 05:40:06;;;;;;;5.10;0.60;;;7.00;70.40;;;;;;5090427;28;20496;-72
2023/10/15 05:42:32;;;;;;;4.50;0.50;;;7.00;70.60;;;;;;5074481;28;20481;-73
2023/10/15 05:44:57;;;;;;;4.47;0.57;;;7.10;70.40;;;;;;5085483;28;20539;-72
2023/10/15 05:47:23;;;;;;;2.88;0.45;;;7.10;70.30;;;;;;5086916;28;21156;-72
2023/10/15 05:49:49;;;;;;;5.17;0.50;;;7.10;68.60;;;;;;5088182;28;20471;-72
2023/10/15 05:52:15;;;;;;;4.80;0.50;;;7.10;70.00;;;;;;5087542;28;20417;-72
2023/10/15 05:54:41;;;;;;;5.10;0.65;;;7.10;70.30;;;;;;5089471;28;20410;-73
2023/10/15 05:57:07;;;;;;;3.45;0.40;;;7.20;70.50;;;;;;5071884;28;20410;-72
2023/10/15 05:59:36;;;;;;;3.03;0.50;;;7.20;70.10;;;;;;5094429;28;20412;-73
2023/10/15 06:02:02;;;;;;;4.20;0.47;;;7.20;70.10;;;;;;5093490;28;20408;-72
2023/10/15 06:04:28;;;;;;;6.07;0.47;;;7.30;69.70;;;;;;5091764;28;20410;-72
2023/10/15 06:06:54;;;;;;;7.70;0.63;;;7.30;69.00;;;;;;5093699;28;20428;-72
2023/10/15 06:09:20;;;;;;;8.43;1.08;;;7.30;68.60;;;;;;5090268;28;20499;-72
2023/10/15 06:11:46;;;;;;;4.35;0.35;;;7.30;68.70;;;;;;5088825;28;20460;-72
2023/10/15 06:14:11;;;;;;;4.90;0.40;;;7.30;66.80;;;;;;5090166;28;21036;-70
2023/10/15 06:16:37;;;;;;;4.90;0.40;;;7.30;66.60;;;;;;5088505;28;20394;-70
2023/10/15 06:19:03;;;;;;;4.90;0.47;;;7.30;66.40;;;;;;5089901;28;20410;-70
2023/10/15 06:21:28;;;;;;;4.33;0.37;;;7.30;65.90;;;;;;5092645;28;20414;-70
2023/10/15 06:23:54;;;;;;;4.85;0.30;;;7.20;64.90;;;;;;5090086;28;20475;-70
2023/10/15 06:26:20;;;;;;;3.67;0.30;;;7.30;64.70;;;;;;5089956;28;20846;-70
2023/10/15 06:28:45;;;;;;;3.97;0.25;;;7.30;63.00;;;;;;5089998;28;20449;-71
2023/10/15 06:31:11;;;;;;;3.75;0.30;;;7.40;62.10;;;;;;5089403;28;20398;-71
2023/10/15 06:33:40;;;;;;;2.37;0.20;;;7.40;60.50;;;;;;5086874;28;20433;-70
2023/10/15 06:36:09;;;;;;;1.33;0.13;;;7.40;59.10;;;;;;5088731;28;20466;-71
2023/10/15 06:38:34;;;;;;;2.22;0.20;;;7.30;57.70;;;;;;5086701;28;20414;-71
2023/10/15 06:41:00;;;;;;;1.70;0.10;;;7.30;56.90;;;;;;5084837;28;20401;-70
2023/10/15 06:43:27;;;;;;;1.10;0.20;;;7.30;56.70;;;;;;5087190;28;20516;-71
2023/10/15 06:45:52;;;;;;;1.20;0.10;;;7.20;56.80;;;;;;5086960;28;20421;-70
2023/10/15 06:48:22;;;;;;;1.43;0.10;;;7.20;56.90;;;;;;5082393;28;20445;-71
2023/10/15 06:50:48;;;;;;;1.65;0.20;;;7.10;56.80;;;;;;5089012;28;20428;-70
2023/10/15 06:53:14;;;;;;;2.15;0.10;;;7.10;56.80;;;;;;5088057;28;20398;-70
2023/10/15 06:55:42;;;;;;;2.17;0.20;;;7.10;56.90;;;;;;5093789;28;20954;-71
2023/10/15 06:58:10;;;;;;;3.03;0.28;;;7.00;57.50;;;;;;5090568;28;20402;-71
2023/10/15 07:00:36;;;;;;;2.57;0.40;;;7.00;58.10;;;;;;5087633;28;20907;-71
2023/10/15 07:03:02;;;;;;;2.85;0.50;;;6.90;58.70;;;;;;5084451;28;20438;-70
2023/10/15 07:05:28;;;;;;;1.35;0.20;;;6.90;58.90;;;;;;5096423;28;20456;-70
2023/10/15 07:07:56;;;;;;;3.70;0.40;;;6.90;59.70;;;;;;5092221;28;20426;-71
2023/10/15 07:10:22;;;;;;;2.35;0.20;;;6.90;59.60;;;;;;5092349;28;20861;-70
2023/10/15 07:12:52;;;;;;;2.85;0.30;;;7.00;60.40;;;;;;5077372;28;20397;-71
2023/10/15 07:15:22;;;;;;;2.72;0.30;;;7.00;61.30;;;;;;5089596;28;20421;-70
2023/10/15 07:17:49;;;;;;;3.42;0.30;;;7.10;61.90;;;;;;5071744;28;20442;-70
2023/10/15 07:20:16;;;;;;;3.13;0.40;;;7.10;61.90;;;;;;5091882;28;20761;-70
2023/10/15 07:22:44;;;;;;;2.67;0.30;;;7.20;62.60;;;;;;5083437;28;20958;-70
2023/10/15 07:25:10;;;;;;;4.72;0.30;;;7.20;63.20;;;;;;5087961;28;21023;-70
2023/10/15 07:27:41;;;;;;;2.90;0.30;;;7.30;63.20;;;;;;5080147;28;20469;-70
2023/10/15 07:30:12;;;;;;;3.53;0.20;;;7.40;64.00;;;;;;5090046;28;20799;-71
2023/10/15 07:32:39;;;;;;;3.13;0.28;;;7.50;64.60;;;;;;5081225;28;20414;-70
2023/10/15 07:35:07;;;;;;;3.75;0.60;;;7.60;65.50;;;;;;5081799;28;20414;-70
2023/10/15 07:37:34;;;;;;;3.67;0.30;;;7.80;66.70;;;;;;5080042;28;20405;-70
2023/10/15 07:40:05;;;;;;;4.57;0.50;;;7.90;66.40;;;;;;5088840;28;20410;-70
2023/10/15 07:42:32;;;;;;;4.93;0.40;;;8.00;65.00;;;;;;5091295;28;20416;-70
2023/10/15 07:44:59;;;;;;;3.80;0.50;;;7.90;64.10;;;;;;5090537;28;20908;-70
2023/10/15 07:47:25;;;;;;;4.72;0.57;;;8.00;62.90;;;;;;5085445;28;20463;-70
2023/10/15 07:49:51;;;;;;;4.95;0.80;;;7.90;62.70;;;;;;5090436;28;20398;-70
2023/10/15 07:52:17;;;;;;;4.25;0.60;;;8.00;62.60;;;;;;5087700;28;20398;-71
2023/10/15 07:54:43;;;;;;;3.23;0.43;;;7.90;63.20;;;;;;5089826;28;20413;-67
2023/10/15 07:57:10;;;;;;;6.32;0.90;;;8.00;63.20;;;;;;5099843;28;20400;-69
2023/10/15 07:59:36;;;;;;;6.33;0.50;;;8.00;63.70;;;;;;5088160;28;20911;-69
2023/10/15 08:02:03;;;;;;;5.35;0.70;;;8.00;64.30;;;;;;5086467;28;20468;-69
2023/10/15 08:04:29;;;;;;;5.70;0.60;;;8.00;64.90;;;;;;5087846;28;20402;-70
2023/10/15 08:06:55;;;;;;;6.32;0.70;;;8.00;64.30;;;;;;5088908;28;20516;-70
2023/10/15 08:09:21;;;;;;;4.05;0.50;;;8.00;65.00;;;;;;5086674;28;20402;-70
2023/10/15 08:11:47;;;;;;;4.93;0.57;;;8.10;65.80;;;;;;5089773;28;20392;-70
2023/10/15 08:14:13;;;;;;;5.78;0.63;;;8.10;65.10;;;;;;5087406;28;20394;-70
2023/10/15 08:16:38;;;;;;;5.22;0.80;;;8.20;64.70;;;;;;5062153;28;20957;-70
2023/10/15 08:19:04;;;;;;;8.40;1.23;;;8.20;64.70;;;;;;5087036;28;20420;-70
2023/10/15 08:21:30;;;;;;;11.45;1.30;;;8.20;61.20;;;;;;5088251;28;20479;-70
2023/10/15 08:23:57;;;;;;;5.63;0.60;;;8.00;58.50;;;;;;5087622;28;20420;-70
2023/10/15 08:26:22;;;;;;;7.22;0.90;;;7.90;57.60;;;;;;5087827;28;20402;-70
2023/10/15 08:28:48;;;;;;;7.13;0.88;;;7.70;56.00;;;;;;5094266;28;20434;-70
2023/10/15 08:31:14;;;;;;;7.73;0.70;;;7.60;56.10;;;;;;5087278;28;20410;-70
2023/10/15 08:33:40;;;;;;;12.45;0.93;;;7.50;56.40;;;;;;5087709;28;20398;-70
2023/10/15 08:36:07;;;;;;;9.67;1.10;;;7.40;57.60;;;;;;5088883;28;20931;-70
2023/10/15 08:38:34;;;;;;;9.18;0.93;;;7.40;57.90;;;;;;5092908;28;20410;-70
2023/10/15 08:41:04;;;;;;;11.27;1.33;;;7.30;58.50;;;;;;5087213;28;20417;-70
2023/10/15 08:43:32;;;;;;;8.37;0.97;;;7.30;59.70;;;;;;5089095;28;20417;-70
2023/10/15 08:46:01;;;;;;;7.35;0.77;;;7.30;62.50;;;;;;5092358;28;20472;-70
2023/10/15 08:48:28;;;;;;;8.70;1.00;;;7.40;64.70;;;;;;5094944;28;20791;-70
2023/10/15 08:50:57;;;;;;;8.15;1.17;;;7.50;66.90;;;;;;5086893;28;20829;-70
2023/10/15 08:53:25;;;;;;;7.20;0.73;;;7.70;69.00;;;;;;5085572;28;20432;-70
2023/10/15 08:55:57;;;;;;;9.67;1.10;;;7.70;69.20;;;;;;5086967;28;20421;-70
2023/10/15 08:58:25;;;;;;;7.93;0.95;;;7.90;68.70;;;;;;5086346;28;20568;-71
2023/10/15 09:00:54;;;;;;;6.57;0.80;;;8.00;67.70;;;;;;5074551;28;20439;-70
2023/10/15 09:03:23;;;;;;;5.50;1.23;;;8.40;85.10;;;;;;5084707;28;20410;-71
2023/10/15 09:05:52;;;;;;;5.33;0.70;;;9.30;89.30;;;;;;5097150;28;20408;-71
2023/10/15 09:08:19;;;;;;;5.70;0.80;;;9.70;63.60;;;;;;5081293;28;20476;-71
2023/10/15 09:10:44;;;;;;;3.80;0.50;;;9.60;56.40;;;;;;5086734;28;20760;-71
2023/10/15 09:13:18;;;;;;;7.20;1.00;;;9.50;55.30;;;;;;5081499;28;20422;-71
2023/10/15 09:15:46;;;;;;;3.97;0.52;;;9.60;65.40;;;;;;5086976;28;20421;-70
2023/10/15 09:18:13;;;;;;;4.25;0.60;;;9.70;61.60;;;;;;5087080;28;20532;-71
2023/10/15 09:20:44;;;;;;;7.63;1.92;;;9.80;58.30;;;;;;5093047;28;20463;-70
2023/10/15 09:23:10;;;;;;;5.22;0.80;;;9.80;56.50;;;;;;5088486;28;20496;-72
2023/10/15 09:25:36;;;;;;;8.80;3.97;;;9.80;54.90;;;;;;5086398;28;20424;-72
2023/10/15 09:28:03;;;;;;;7.88;1.63;;;9.90;58.50;;;;;;5090659;28;20434;-72
2023/10/15 09:30:32;;;;;;;7.72;1.00;;;10.10;56.70;;;;;;5071792;28;20411;-69
2023/10/15 09:32:58;;;;;;;4.55;0.60;;;10.20;60.60;;;;;;5086107;28;20491;-70
2023/10/15 09:35:24;;;;;;;7.78;1.25;;;10.50;59.20;;;;;;5091063;28;20815;-68
2023/10/15 09:37:50;;;;;;;2.72;0.52;;;11.40;63.20;;;;;;5094164;28;20747;-70
2023/10/15 09:40:19;;;;;;;4.73;0.60;;;12.50;56.70;;;;;;5091073;28;20513;-70
2023/10/15 09:42:49;;;;;;;7.63;0.60;;;13.50;40.40;;;;;;5089988;28;21062;-71
2023/10/15 09:45:19;;;;;;;5.43;0.70;;;14.20;21.30;;;;;;5089692;28;20730;-71
2023/10/15 09:47:49;;;;;;;5.05;0.75;;;14.80;15.60;;;;;;5089769;28;20505;-71
2023/10/15 09:50:25;;;;;;;5.28;0.47;;;15.40;3.30;;;;;;5084691;28;20789;-72
2023/10/15 09:53:01;;;;;;;3.58;0.50;;;15.90;1.00;;;;;;5089278;28;20410;-71
2023/10/15 09:55:28;;;;;;;3.65;0.50;;;15.60;1.00;;;;;;5089495;28;20496;-71
2023/10/15 09:58:01;;;;;;;4.77;0.50;;;15.40;1.00;;;;;;5094720;28;20408;-71
2023/10/15 10:03:47;;;;;;;6.72;0.90;;;15.00;1.00;;;;;;5093220;28;20972;-71
2023/10/15 10:06:52;;;;;;;5.50;0.60;;;15.00;1.00;;;;;;5085762;28;20480;-72
2023/10/15 10:09:36;;;;;;;3.17;0.65;;;15.50;1.00;;;;;;5083288;28;20416;-71
2023/10/15 10:12:27;;;;;;;5.03;0.60;;;15.70;1.00;;;;;;5088725;28;20887;-72
2023/10/15 10:15:22;;;;;;;5.10;0.43;;;14.90;1.00;;;;;;5094133;28;20752;-72
2023/10/15 10:17:50;;;;;;;3.90;0.50;;;14.20;1.00;;;;;;5080195;28;20429;-72
2023/10/15 10:20:19;;;;;;;1.83;0.20;;;14.60;1.00;;;;;;5090038;28;20404;-73
2023/10/15 10:22:59;;;;;;;2.25;0.28;;;14.70;1.00;;;;;;5088640;28;20479;-72
2023/10/15 10:25:32;;;;;;;2.53;0.30;;;14.10;1.00;;;;;;5082200;28;20417;-72
2023/10/15 10:28:11;;;;;;;1.42;0.20;;;13.40;1.00;;;;;;5084522;28;20488;-72
2023/10/15 10:30:38;;;;;;;2.58;0.30;;;12.90;1.00;;;;;;5090087;28;20958;-72
2023/10/15 10:33:04;;;;;;;4.85;0.70;;;12.50;1.00;;;;;;5089230;28;20814;-72
2023/10/15 10:35:46;;;;;;;2.10;0.40;;;12.30;1.00;;;;;;5084034;28;20415;-72
2023/10/15 10:38:19;;;;;;;2.70;0.40;;;12.60;1.00;;;;;;5087490;28;20402;-73
2023/10/15 10:40:52;;;;;;;3.88;0.50;;;13.80;1.00;;;;;;5081990;28;20406;-72
2023/10/15 10:43:21;;;;;;;2.25;0.22;;;15.00;1.00;;;;;;5084412;28;20414;-72
2023/10/15 10:45:51;;;;;;;3.70;0.40;;;16.00;1.00;;;;;;5089334;28;20925;-72
2023/10/15 10:48:25;;;;;;;3.83;0.43;;;16.40;1.00;;;;;;5088901;28;20437;-72
2023/10/15 10:51:11;;;;;;;3.75;0.50;;;16.10;1.00;;;;;;5088949;28;20977;-72
2023/10/15 10:53:59;;;;;;;4.38;0.57;;;16.40;1.00;;;;;;5089638;28;20971;-72
2023/10/15 10:56:40;;;;;;;3.30;0.50;;;16.40;1.00;;;;;;5084339;28;20547;-72
2023/10/15 10:59:14;;;;;;;3.00;0.40;;;16.90;1.00;;;;;;5088923;28;20405;-72
2023/10/15 11:01:45;;;;;;;4.90;0.50;;;17.00;1.00;;;;;;5088342;28;20414;-72
2023/10/15 11:04:15;;;;;;;4.33;0.60;;;16.70;1.00;;;;;;5089033;28;20467;-72
2023/10/15 11:06:45;;;;;;;6.18;0.70;;;16.20;1.00;;;;;;5089158;28;20912;-72
2023/10/15 11:09:15;;;;;;;3.42;0.52;;;15.80;1.00;;;;;;5087682;28;20410;-72
2023/10/15 11:11:55;;;;;;;5.93;0.68;;;15.70;1.00;;;;;;5088746;28;20382;-72
2023/10/15 11:14:27;;;;;;;4.95;0.73;;;15.50;1.00;;;;;;5088459;28;20911;-72
2023/10/15 11:16:56;;;;;;;5.87;0.70;;;14.90;1.00;;;;;;5086632;28;20406;-72
2023/10/15 11:19:25;;;;;;;5.50;0.63;;;15.10;1.00;;;;;;5071949;28;20403;-72
2023/10/15 11:21:52;;;;;;;5.93;0.93;;;16.10;1.00;;;;;;5084216;28;20421;-72
2023/10/15 11:24:20;;;;;;;4.93;0.85;;;17.00;1.00;;;;;;5086812;28;20453;-72
2023/10/15 11:26:46;;;;;;;4.50;0.70;;;17.80;1.00;;;;;;5087268;28;21056;-72
2023/10/15 11:29:15;;;;;;;4.30;0.50;;;17.70;99.90;;;;;;5078764;28;20402;-72
2023/10/15 11:31:44;;;;;;;6.55;0.60;;;17.30;99.90;;;;;;5087915;28;20417;-72
2023/10/15 11:34:17;;;;;;;4.83;0.60;;;17.80;99.90;;;;;;5088116;28;20781;-72
2023/10/15 11:36:48;;;;;;;5.57;0.80;;;18.60;99.90;;;;;;5087698;28;20434;-72
2023/10/15 11:39:18;;;;;;;4.80;0.70;;;19.20;99.90;;;;;;5081356;28;20406;-73
2023/10/15 11:41:50;;;;;;;7.57;0.90;;;19.20;99.90;;;;;;5087980;28;20401;-72
2023/10/15 11:44:18;;;;;;;4.67;0.60;;;18.20;99.90;;;;;;5088549;28;20516;-71
2023/10/15 11:46:46;;;;;;;4.80;0.43;;;17.20;1.00;;;;;;5079532;28;20410;-73
2023/10/15 11:49:12;;;;;;;4.95;0.40;;;17.20;99.90;;;;;;5088183;28;20451;-73
2023/10/15 11:51:39;;;;;;;4.17;0.73;;;17.90;99.90;;;;;;5086124;28;20406;-72
2023/10/15 11:54:09;;;;;;;5.43;0.70;;;18.50;80.90;;;;;;5085160;28;20923;-72
2023/10/15 11:56:37;;;;;;;6.23;0.90;;;18.90;99.90;;;;;;5089240;28;20459;-72
2023/10/15 11:59:03;;;;;;;4.80;0.77;;;19.40;47.30;;;;;;5090612;28;20407;-72
2023/10/15 12:01:29;;;;;;;4.32;0.77;;;20.00;1.00;;;;;;5120026;27;20491;-72
2023/10/15 12:04:00;;;;;;;5.38;0.80;;;20.10;99.90;;;;;;5091487;28;20833;-72
2023/10/15 12:06:26;;;;;;;5.88;0.90;;;20.40;99.90;;;;;;5079930;28;20406;-72
2023/10/15 12:08:52;;;;;;;5.63;0.80;;;20.60;92.10;;;;;;5069266;28;20452;-72
2023/10/15 12:11:18;;;;;;;6.95;0.90;;;20.30;99.90;;;;;;5087965;28;20494;-72
2023/10/15 12:13:47;;;;;;;7.75;1.05;;;19.30;99.90;;;;;;5089598;28;20980;-75
2023/10/15 12:16:14;;;;;;;6.28;0.98;;;18.10;1.00;;;;;;5089572;28;20426;-72
2023/10/15 12:18:39;;;;;;;3.60;0.70;;;17.00;99.90;;;;;;5085701;28;20483;-72
2023/10/15 12:21:06;;;;;;;6.13;0.75;;;16.20;73.70;;;;;;5093083;28;20536;-72
2023/10/15 12:23:32;;;;;;;6.63;0.85;;;15.50;1.00;;;;;;5089638;28;20453;-72
2023/10/15 12:25:57;;;;;;;5.65;0.77;;;14.90;99.90;;;;;;5087372;28;20417;-70
2023/10/15 12:28:23;;;;;;;5.97;0.80;;;14.60;99.90;;;;;;5090393;28;20429;-69
2023/10/15 12:30:49;;;;;;;5.57;0.80;;;14.80;99.90;;;;;;5088249;28;20509;-71
2023/10/15 12:33:15;;;;;;;4.37;0.40;;;15.10;99.90;;;;;;5086336;28;20520;-71
2023/10/15 12:35:43;;;;;;;3.20;0.60;;;14.80;1.00;;;;;;5088444;28;20434;-70
2023/10/15 12:38:16;;;;;;;4.85;0.93;;;14.50;1.00;;;;;;5086681;28;20772;-71
2023/10/15 12:40:45;;;;;;;5.13;0.70;;;14.70;99.90;;;;;;5086983;28;20818;-71
2023/10/15 12:43:11;;;;;;;2.95;0.50;;;15.90;99.90;;;;;;5087361;28;20486;-71
2023/10/15 12:45:37;;;;;;;6.65;0.90;;;17.00;99.90;;;;;;5091134;28;20414;-71
2023/10/15 12:48:05;;;;;;;4.80;0.80;;;17.90;99.90;;;;;;5088771;28;20479;-71
2023/10/15 12:50:31;;;;;;;4.75;0.90;;;18.20;1.00;;;;;;5087641;28;20492;-71
2023/10/15 12:52:58;;;;;;;5.40;0.65;;;18.20;99.90;;;;;;5087277;28;20497;-71
2023/10/15 12:55:24;;;;;;;5.20;0.67;;;17.50;99.90;;;;;;5090773;28;20962;-71
2023/10/15 12:57:53;;;;;;;4.55;0.60;;;16.60;99.90;;;;;;5089138;28;20405;-71
2023/10/15 13:00:21;;;;;;;3.20;0.73;;;15.90;1.00;;;;;;5086210;28;20421;-71
2023/10/15 13:02:53;;;;;;;3.33;0.60;;;15.40;58.20;;;;;;5092411;28;20414;-71
2023/10/15 13:05:21;;;;;;;2.78;0.50;;;14.90;99.90;;;;;;5095169;28;20418;-72
2023/10/15 13:07:48;;;;;;;6.10;0.77;;;14.50;99.90;;;;;;5091380;28;20426;-72
2023/10/15 13:10:17;;;;;;;3.92;0.52;;;14.60;99.90;;;;;;5090932;28;20410;-71
2023/10/15 13:12:44;;;;;;;5.82;1.13;;;14.60;99.90;;;;;;5091793;28;20410;-71
2023/10/15 13:15:10;;;;;;;6.00;0.95;;;14.00;99.90;;;;;;5091194;28;20923;-72
2023/10/15 13:17:37;;;;;;;6.32;0.82;;;13.90;1.00;;;;;;5091278;28;20464;-72
2023/10/15 13:20:06;;;;;;;4.80;0.90;;;14.20;1.00;;;;;;5098754;28;20409;-71